Terminal Aerodrome Forecast
Issued by NWS

Home | Current Version | Previous Version | Text Only | Print | Product List | Glossary On
Versions: 1 2 3 4 5 6 7 8 9 10 11 12 13
000
FTUS46 KSGX 252300
TAFPSP
TAF
KPSP 252339Z 2600/2624 36010KT P6SM SKC
     FM260200 VRB05KT P6SM SKC WS015/31025KT
     FM261200 VRB05KT P6SM SKC=

USA.gov is the U.S. government's official web portal to all federal, state and local government web resources and services.